Time;durP1;ratioP1;P1;durP2;ratioP2;P2;SDS_P1;SDS_P2;PMS_P1;PMS_P2;Temp;Humidity;BMP_temperature;BMP_pressure;BME280_temperature;BME280_humidity;BME280_pressure;Samples;Min_cycle;Max_cycle;Signal;HPM_P1;HPM_P2
2022/10/23 00:00:02;;;;;;;5.17;3.33;;;;;;;;;;5072254;28;20433;-41
2022/10/23 00:02:28;;;;;;;5.07;2.80;;;;;;;;;;5072065;28;20408;-42
2022/10/23 00:04:54;;;;;;;7.47;3.00;;;;;;;;;;5072048;28;20498;-41
2022/10/23 00:07:20;;;;;;;7.07;3.20;;;;;;;;;;5071430;28;20529;-42
2022/10/23 00:09:46;;;;;;;5.00;3.30;;;;;;;;;;5072119;28;20771;-41
2022/10/23 00:12:12;;;;;;;6.23;3.33;;;;;;;;;;5072112;28;20779;-42
2022/10/23 00:14:38;;;;;;;6.00;3.70;;;;;;;;;;5072139;28;20399;-42
2022/10/23 00:17:04;;;;;;;9.93;3.03;;;;;;;;;;5071256;28;20439;-42
2022/10/23 00:19:30;;;;;;;7.40;3.17;;;;;;;;;;5071908;28;20452;-42
2022/10/23 00:21:56;;;;;;;5.93;3.97;;;;;;;;;;5071894;28;20410;-41
2022/10/23 00:24:22;;;;;;;5.93;3.40;;;;;;;;;;5071991;28;20902;-42
2022/10/23 00:26:51;;;;;;;4.93;3.53;;;;;;;;;;5071677;28;20804;-42
2022/10/23 00:29:17;;;;;;;9.60;3.47;;;;;;;;;;5071730;28;20890;-42
2022/10/23 00:31:43;;;;;;;6.70;3.23;;;;;;;;;;5071877;28;20405;-43
2022/10/23 00:34:09;;;;;;;7.93;3.10;;;;;;;;;;5071814;28;20383;-41
2022/10/23 00:36:36;;;;;;;5.93;3.00;;;;;;;;;;5071591;28;20884;-41
2022/10/23 00:39:02;;;;;;;7.30;3.43;;;;;;;;;;5071561;28;20426;-42
2022/10/23 00:41:29;;;;;;;4.50;3.23;;;;;;;;;;5071776;28;20493;-41
2022/10/23 00:43:57;;;;;;;12.47;5.13;;;;;;;;;;5071694;28;20484;-42
2022/10/23 00:46:24;;;;;;;15.53;6.00;;;;;;;;;;5071568;28;20503;-41
2022/10/23 00:48:50;;;;;;;11.37;6.97;;;;;;;;;;5070936;28;20864;-41
2022/10/23 00:51:16;;;;;;;22.73;11.50;;;;;;;;;;5071590;28;20490;-41
2022/10/23 00:53:43;;;;;;;30.10;15.80;;;;;;;;;;5071822;28;20494;-41
2022/10/23 00:56:09;;;;;;;25.40;14.57;;;;;;;;;;5071749;28;20405;-42
2022/10/23 00:58:35;;;;;;;35.50;18.87;;;;;;;;;;5074548;28;20789;-41
2022/10/23 01:01:01;;;;;;;25.87;13.43;;;;;;;;;;5074899;28;20756;-41
2022/10/23 01:03:28;;;;;;;17.87;10.50;;;;;;;;;;5074708;28;20434;-42
2022/10/23 01:06:01;;;;;;;26.17;11.70;;;;;;;;;;5075054;28;20449;-42
2022/10/23 01:08:28;;;;;;;19.80;9.80;;;;;;;;;;5074849;28;20435;-42
2022/10/23 01:10:58;;;;;;;15.50;7.23;;;;;;;;;;5075281;28;20496;-42
2022/10/23 01:13:39;;;;;;;17.63;9.10;;;;;;;;;;5075161;28;20406;-42
2022/10/23 01:16:10;;;;;;;24.27;11.83;;;;;;;;;;5075252;28;20460;-41
2022/10/23 01:18:57;;;;;;;25.57;14.03;;;;;;;;;;5074574;28;20483;-41
2022/10/23 01:21:34;;;;;;;31.17;18.47;;;;;;;;;;5075132;28;20441;-42
2022/10/23 01:24:09;;;;;;;68.23;28.57;;;;;;;;;;5075089;28;20506;-42
2022/10/23 01:26:35;;;;;;;72.03;36.57;;;;;;;;;;5074751;28;20465;-42
2022/10/23 01:29:04;;;;;;;129.73;57.10;;;;;;;;;;5074377;28;20422;-42
2022/10/23 01:31:35;;;;;;;113.50;47.33;;;;;;;;;;5075047;28;20843;-41
2022/10/23 01:34:22;;;;;;;72.40;30.73;;;;;;;;;;5073252;28;20445;-42
2022/10/23 01:36:50;;;;;;;33.43;14.03;;;;;;;;;;5074655;28;20403;-42
2022/10/23 01:39:21;;;;;;;27.63;11.87;;;;;;;;;;5074648;28;20935;-41
2022/10/23 01:42:11;;;;;;;17.67;8.73;;;;;;;;;;5074753;28;20737;-41
2022/10/23 01:44:49;;;;;;;29.93;9.40;;;;;;;;;;5071784;28;20562;-41
2022/10/23 01:47:16;;;;;;;13.60;6.80;;;;;;;;;;5073993;28;20496;-41
2022/10/23 01:49:43;;;;;;;12.87;6.53;;;;;;;;;;5074533;28;20420;-42
2022/10/23 01:52:11;;;;;;;15.30;6.13;;;;;;;;;;5074554;28;20779;-42
2022/10/23 01:54:39;;;;;;;16.70;7.80;;;;;;;;;;5074456;28;20493;-41
2022/10/23 01:57:07;;;;;;;10.50;5.30;;;;;;;;;;5073839;28;20399;-43
2022/10/23 01:59:35;;;;;;;8.83;5.43;;;;;;;;;;5074265;28;20466;-41
2022/10/23 02:02:02;;;;;;;7.93;4.53;;;;;;;;;;5074371;28;20398;-42
2022/10/23 02:04:35;;;;;;;10.63;5.00;;;;;;;;;;5074053;28;20476;-41
2022/10/23 02:07:01;;;;;;;9.20;4.67;;;;;;;;;;5073752;28;20457;-41
2022/10/23 02:09:27;;;;;;;11.40;4.50;;;;;;;;;;5072110;28;20461;-41
2022/10/23 02:11:56;;;;;;;7.60;4.80;;;;;;;;;;5074209;28;20414;-41
2022/10/23 02:14:25;;;;;;;8.40;6.03;;;;;;;;;;5074138;28;20403;-41
2022/10/23 02:16:56;;;;;;;12.53;5.30;;;;;;;;;;5073796;28;20408;-43
2022/10/23 02:19:45;;;;;;;11.63;4.73;;;;;;;;;;5074014;28;20432;-41
2022/10/23 02:22:11;;;;;;;6.30;5.40;;;;;;;;;;5071086;28;20799;-41
2022/10/23 02:24:45;;;;;;;12.77;6.10;;;;;;;;;;5073902;28;20404;-41
2022/10/23 02:27:20;;;;;;;9.57;5.50;;;;;;;;;;5073171;28;20977;-41
2022/10/23 02:29:54;;;;;;;11.03;6.43;;;;;;;;;;5073806;28;20472;-42
2022/10/23 02:32:21;;;;;;;9.43;5.23;;;;;;;;;;5073878;28;20896;-41
2022/10/23 02:34:47;;;;;;;20.87;6.93;;;;;;;;;;5073710;28;20484;-41
2022/10/23 02:37:14;;;;;;;11.57;5.47;;;;;;;;;;5073124;28;20410;-41
2022/10/23 02:39:40;;;;;;;7.67;5.87;;;;;;;;;;5073598;28;20443;-41
2022/10/23 02:42:20;;;;;;;8.37;6.17;;;;;;;;;;5073497;28;20402;-44
2022/10/23 02:45:25;;;;;;;16.40;6.67;;;;;;;;;;5073914;28;20426;-41
2022/10/23 02:48:03;;;;;;;16.70;8.07;;;;;;;;;;5050488;28;20412;-41
2022/10/23 02:50:31;;;;;;;15.53;7.20;;;;;;;;;;5070884;28;20417;-44
2022/10/23 02:52:57;;;;;;;11.67;6.40;;;;;;;;;;5073600;28;20391;-42
2022/10/23 02:55:29;;;;;;;17.70;6.77;;;;;;;;;;5073227;28;20441;-42
2022/10/23 02:58:09;;;;;;;13.40;6.90;;;;;;;;;;5072695;28;20823;-42
2022/10/23 03:00:42;;;;;;;12.63;5.70;;;;;;;;;;5073248;28;20451;-41
2022/10/23 03:03:14;;;;;;;8.30;5.30;;;;;;;;;;5073118;28;20434;-42
2022/10/23 03:05:41;;;;;;;12.77;5.53;;;;;;;;;;5073181;28;20854;-43
2022/10/23 03:08:12;;;;;;;8.93;4.73;;;;;;;;;;5072560;28;20399;-41
2022/10/23 03:10:40;;;;;;;10.43;4.23;;;;;;;;;;5072939;28;20773;-43
2022/10/23 03:13:06;;;;;;;8.23;5.00;;;;;;;;;;5073047;28;20411;-42
2022/10/23 03:15:32;;;;;;;10.30;5.33;;;;;;;;;;5072915;28;20408;-42
2022/10/23 03:17:58;;;;;;;9.73;5.30;;;;;;;;;;5072163;28;20412;-42
2022/10/23 03:20:24;;;;;;;9.90;5.07;;;;;;;;;;5072647;28;20432;-41
2022/10/23 03:22:50;;;;;;;13.70;5.20;;;;;;;;;;5072900;28;20491;-41
2022/10/23 03:25:16;;;;;;;7.67;5.70;;;;;;;;;;5072562;28;20628;-41
2022/10/23 03:27:42;;;;;;;9.70;5.83;;;;;;;;;;5072073;28;20410;-42
2022/10/23 03:30:08;;;;;;;12.53;5.40;;;;;;;;;;5072527;28;20425;-42
2022/10/23 03:32:34;;;;;;;14.00;6.10;;;;;;;;;;5072613;28;20421;-41
2022/10/23 03:35:00;;;;;;;9.03;4.80;;;;;;;;;;5072728;28;20893;-42
2022/10/23 03:37:26;;;;;;;14.60;5.83;;;;;;;;;;5071970;28;20465;-41
2022/10/23 03:39:52;;;;;;;8.47;5.37;;;;;;;;;;5072341;28;20424;-43
2022/10/23 03:42:19;;;;;;;15.03;7.00;;;;;;;;;;5072585;28;20595;-42
2022/10/23 03:44:45;;;;;;;15.40;7.03;;;;;;;;;;5072331;28;20407;-42
2022/10/23 03:47:11;;;;;;;14.37;6.77;;;;;;;;;;5071670;28;20469;-41
2022/10/23 03:49:38;;;;;;;13.80;6.47;;;;;;;;;;5072213;28;20456;-41
2022/10/23 03:52:04;;;;;;;8.97;5.60;;;;;;;;;;5072409;28;20780;-42
2022/10/23 03:54:31;;;;;;;5.50;4.30;;;;;;;;;;5072311;28;20409;-42
2022/10/23 03:56:57;;;;;;;13.27;5.03;;;;;;;;;;5071340;28;20403;-42
2022/10/23 03:59:23;;;;;;;15.80;5.40;;;;;;;;;;5072037;28;20506;-42
2022/10/23 04:01:49;;;;;;;8.53;5.93;;;;;;;;;;5072136;28;20888;-41
2022/10/23 04:04:15;;;;;;;7.50;4.80;;;;;;;;;;5058154;28;20773;-42
2022/10/23 04:06:41;;;;;;;5.72;3.92;;;;;;;;;;5051114;28;20419;-42
2022/10/23 04:09:07;;;;;;;7.60;6.13;;;;;;;;;;5051182;28;20462;-42
2022/10/23 04:11:33;;;;;;;10.43;4.97;;;;;;;;;;5051856;28;20831;-42
2022/10/23 04:13:59;;;;;;;11.97;5.27;;;;;;;;;;5051704;28;21035;-40
2022/10/23 04:16:27;;;;;;;6.60;5.53;;;;;;;;;;5051604;28;20401;-42
2022/10/23 04:18:53;;;;;;;8.50;5.50;;;;;;;;;;5050437;28;20431;-41
2022/10/23 04:21:19;;;;;;;10.63;5.37;;;;;;;;;;5051605;28;20403;-41
2022/10/23 04:23:45;;;;;;;14.30;6.27;;;;;;;;;;5051495;28;20412;-42
2022/10/23 04:26:12;;;;;;;8.67;5.23;;;;;;;;;;5051181;28;20458;-41
2022/10/23 04:28:38;;;;;;;8.43;5.80;;;;;;;;;;5050818;28;20510;-42
2022/10/23 04:31:04;;;;;;;10.07;6.37;;;;;;;;;;5051399;28;20400;-42
2022/10/23 04:33:30;;;;;;;11.23;7.17;;;;;;;;;;5051497;28;20503;-43
2022/10/23 04:35:56;;;;;;;10.23;5.67;;;;;;;;;;5051159;28;20510;-41
2022/10/23 04:38:22;;;;;;;8.07;5.87;;;;;;;;;;5049731;28;20405;-41
2022/10/23 04:40:48;;;;;;;13.03;5.87;;;;;;;;;;5050793;28;20429;-41
2022/10/23 04:43:14;;;;;;;12.57;5.10;;;;;;;;;;5051024;28;20401;-42
2022/10/23 04:45:40;;;;;;;6.60;5.00;;;;;;;;;;5036703;28;20463;-42
2022/10/23 04:48:06;;;;;;;6.80;5.43;;;;;;;;;;5031899;28;20440;-43
2022/10/23 04:50:32;;;;;;;9.80;4.50;;;;;;;;;;5030467;28;20435;-42
2022/10/23 04:52:58;;;;;;;11.00;5.50;;;;;;;;;;5048371;28;20405;-43
2022/10/23 04:55:24;;;;;;;15.20;6.03;;;;;;;;;;5050269;28;20761;-42
2022/10/23 04:57:50;;;;;;;8.90;6.00;;;;;;;;;;5049655;28;20436;-42
2022/10/23 05:00:17;;;;;;;9.80;6.00;;;;;;;;;;5050951;28;21055;-42
2022/10/23 05:02:44;;;;;;;14.53;7.17;;;;;;;;;;5050831;28;20483;-42
2022/10/23 05:05:12;;;;;;;17.47;9.17;;;;;;;;;;5051152;28;20399;-43
2022/10/23 05:07:40;;;;;;;22.67;7.23;;;;;;;;;;5050133;28;20777;-42
2022/10/23 05:10:06;;;;;;;12.03;6.50;;;;;;;;;;5051018;28;20401;-43
2022/10/23 05:12:32;;;;;;;7.90;5.23;;;;;;;;;;5050684;28;20405;-42
2022/10/23 05:15:00;;;;;;;8.20;5.00;;;;;;;;;;5050730;28;20403;-42
2022/10/23 05:17:28;;;;;;;7.40;5.03;;;;;;;;;;5049949;28;20786;-42
2022/10/23 05:19:55;;;;;;;8.83;4.70;;;;;;;;;;5044121;28;21065;-43
2022/10/23 05:22:22;;;;;;;8.83;5.60;;;;;;;;;;5038110;28;20417;-42
2022/10/23 05:24:49;;;;;;;7.83;5.87;;;;;;;;;;5030952;28;20496;-42
2022/10/23 05:27:15;;;;;;;12.93;6.50;;;;;;;;;;5030833;28;20821;-42
2022/10/23 05:29:41;;;;;;;6.50;4.20;;;;;;;;;;5038224;28;20432;-43
2022/10/23 05:32:10;;;;;;;5.07;4.47;;;;;;;;;;5051313;28;20404;-42
2022/10/23 05:34:37;;;;;;;5.13;4.60;;;;;;;;;;5038136;28;20457;-42
2022/10/23 05:37:04;;;;;;;7.93;5.10;;;;;;;;;;5047828;28;20448;-42
2022/10/23 05:39:30;;;;;;;12.93;4.33;;;;;;;;;;5051392;28;20949;-42
2022/10/23 05:41:56;;;;;;;7.23;4.50;;;;;;;;;;5051387;28;20404;-43
2022/10/23 05:44:23;;;;;;;15.07;4.60;;;;;;;;;;5052803;28;20563;-42
2022/10/23 05:46:49;;;;;;;8.07;4.33;;;;;;;;;;5054259;28;20840;-42
2022/10/23 05:49:15;;;;;;;8.43;5.00;;;;;;;;;;5054052;28;20422;-42
2022/10/23 05:51:41;;;;;;;8.20;5.10;;;;;;;;;;5054472;28;20775;-42
2022/10/23 05:54:08;;;;;;;9.40;5.10;;;;;;;;;;5054511;28;20408;-42
2022/10/23 05:56:35;;;;;;;12.63;5.00;;;;;;;;;;5054545;28;20888;-42
2022/10/23 05:59:01;;;;;;;7.40;5.20;;;;;;;;;;5053709;28;20421;-42
2022/10/23 06:01:28;;;;;;;7.43;5.73;;;;;;;;;;5054269;28;20407;-42
2022/10/23 06:03:54;;;;;;;8.00;6.70;;;;;;;;;;5054269;28;20437;-42
2022/10/23 06:06:20;;;;;;;8.13;5.50;;;;;;;;;;5054183;28;20455;-42
2022/10/23 06:08:47;;;;;;;13.03;5.53;;;;;;;;;;5053439;28;20423;-42
2022/10/23 06:11:15;;;;;;;13.27;5.50;;;;;;;;;;5054331;28;20721;-42
2022/10/23 06:13:42;;;;;;;9.70;5.30;;;;;;;;;;5054094;28;20408;-42
2022/10/23 06:16:09;;;;;;;10.63;6.70;;;;;;;;;;5054033;28;20499;-42
2022/10/23 06:18:35;;;;;;;14.70;8.17;;;;;;;;;;5053110;28;20429;-42
2022/10/23 06:21:01;;;;;;;16.07;7.53;;;;;;;;;;5053911;28;20901;-42
2022/10/23 06:23:27;;;;;;;12.33;5.30;;;;;;;;;;5054538;28;20402;-42
2022/10/23 06:25:54;;;;;;;8.97;5.00;;;;;;;;;;5053789;28;20600;-43
2022/10/23 06:28:20;;;;;;;7.70;4.37;;;;;;;;;;5053519;28;20452;-42
2022/10/23 06:30:46;;;;;;;8.20;5.13;;;;;;;;;;5053832;28;20835;-42
2022/10/23 06:33:12;;;;;;;10.97;5.70;;;;;;;;;;5053721;28;20404;-42
2022/10/23 06:35:38;;;;;;;13.10;5.17;;;;;;;;;;5053629;28;20405;-43
2022/10/23 06:38:04;;;;;;;8.27;4.93;;;;;;;;;;5052939;28;20412;-43
2022/10/23 06:40:30;;;;;;;7.17;4.63;;;;;;;;;;5053695;28;20421;-42
2022/10/23 06:42:57;;;;;;;9.23;3.93;;;;;;;;;;5053612;28;20401;-43
2022/10/23 06:45:23;;;;;;;5.33;3.83;;;;;;;;;;5053435;28;20788;-42
2022/10/23 06:47:50;;;;;;;5.50;4.13;;;;;;;;;;5052844;28;20404;-42
2022/10/23 06:50:16;;;;;;;8.83;4.77;;;;;;;;;;5053424;28;20512;-42
2022/10/23 06:52:42;;;;;;;9.70;4.50;;;;;;;;;;5053635;28;20427;-42
2022/10/23 06:55:08;;;;;;;7.13;3.83;;;;;;;;;;5052768;28;20464;-42
2022/10/23 06:57:34;;;;;;;6.37;4.00;;;;;;;;;;5052813;28;20442;-43
2022/10/23 07:00:00;;;;;;;6.20;3.37;;;;;;;;;;5053588;28;20505;-42
2022/10/23 07:02:26;;;;;;;6.57;3.10;;;;;;;;;;5053568;28;20458;-43
2022/10/23 07:04:52;;;;;;;5.83;3.43;;;;;;;;;;5053365;28;20449;-42
2022/10/23 07:07:18;;;;;;;7.30;4.20;;;;;;;;;;5052431;28;20496;-42
2022/10/23 07:09:44;;;;;;;3.90;2.97;;;;;;;;;;5052913;28;20421;-43
2022/10/23 07:12:10;;;;;;;7.43;3.73;;;;;;;;;;5052886;28;20431;-43
2022/10/23 07:14:36;;;;;;;10.90;3.77;;;;;;;;;;5052948;28;20769;-43
2022/10/23 07:17:02;;;;;;;8.13;3.93;;;;;;;;;;5052755;28;20743;-42
2022/10/23 07:19:28;;;;;;;13.90;4.50;;;;;;;;;;5052429;28;20775;-43
2022/10/23 07:21:54;;;;;;;7.07;4.30;;;;;;;;;;5052787;28;20409;-43
2022/10/23 07:24:20;;;;;;;8.97;4.37;;;;;;;;;;5052939;28;20411;-42
2022/10/23 07:26:45;;;;;;;6.80;3.80;;;;;;;;;;5052558;28;20461;-43
2022/10/23 07:29:12;;;;;;;7.60;5.07;;;;;;;;;;5052217;28;20417;-43
2022/10/23 07:31:38;;;;;;;7.40;4.47;;;;;;;;;;5052602;28;20845;-42
2022/10/23 07:34:05;;;;;;;10.20;3.63;;;;;;;;;;5052641;28;20476;-43
2022/10/23 07:36:31;;;;;;;6.47;4.27;;;;;;;;;;5052630;28;20437;-43
2022/10/23 07:38:58;;;;;;;4.30;3.50;;;;;;;;;;5051783;28;20903;-43
2022/10/23 07:41:24;;;;;;;5.40;3.43;;;;;;;;;;5052395;28;20467;-43
2022/10/23 07:43:50;;;;;;;8.70;3.67;;;;;;;;;;5048475;28;20520;-43
2022/10/23 07:46:16;;;;;;;7.67;3.67;;;;;;;;;;5034631;28;20591;-42
2022/10/23 07:48:42;;;;;;;10.37;3.90;;;;;;;;;;5051521;28;20407;-43
2022/10/23 07:51:11;;;;;;;9.73;3.90;;;;;;;;;;5052239;28;20489;-42
2022/10/23 07:53:37;;;;;;;9.37;4.40;;;;;;;;;;5052235;28;20766;-42
2022/10/23 07:56:04;;;;;;;19.03;4.97;;;;;;;;;;5052164;28;20387;-43
2022/10/23 07:58:30;;;;;;;11.43;5.67;;;;;;;;;;5051506;28;20875;-43
2022/10/23 08:00:58;;;;;;;11.97;7.13;;;;;;;;;;5052439;28;20441;-43
2022/10/23 08:03:27;;;;;;;25.87;12.80;;;;;;;;;;5052176;28;20397;-43
2022/10/23 08:05:53;;;;;;;22.57;11.17;;;;;;;;;;5052183;28;20435;-43
2022/10/23 08:08:20;;;;;;;19.10;10.07;;;;;;;;;;5050896;28;20450;-42
2022/10/23 08:10:47;;;;;;;12.27;7.20;;;;;;;;;;5052229;28;20434;-42
2022/10/23 08:13:13;;;;;;;12.43;5.57;;;;;;;;;;5052150;28;20403;-43
2022/10/23 08:15:40;;;;;;;11.53;5.03;;;;;;;;;;5052082;28;20884;-42
2022/10/23 08:18:06;;;;;;;9.27;5.17;;;;;;;;;;5051152;28;20402;-42
2022/10/23 08:20:33;;;;;;;11.47;6.17;;;;;;;;;;5051779;28;20518;-43
2022/10/23 08:22:59;;;;;;;9.70;6.33;;;;;;;;;;5051905;28;20899;-43
2022/10/23 08:25:25;;;;;;;8.30;5.37;;;;;;;;;;5051682;28;20482;-42
2022/10/23 08:27:51;;;;;;;8.10;5.60;;;;;;;;;;5051314;28;20412;-42
2022/10/23 08:30:16;;;;;;;7.93;5.50;;;;;;;;;;5051785;28;20434;-42
2022/10/23 08:32:42;;;;;;;15.53;5.70;;;;;;;;;;5052009;28;20382;-42
2022/10/23 08:35:08;;;;;;;11.40;4.30;;;;;;;;;;5051832;28;20376;-43
2022/10/23 08:37:34;;;;;;;10.20;3.50;;;;;;;;;;5051233;28;20426;-43
2022/10/23 08:40:00;;;;;;;6.73;3.30;;;;;;;;;;5051659;28;20406;-43
2022/10/23 08:42:27;;;;;;;10.30;3.10;;;;;;;;;;5051725;28;20419;-42
2022/10/23 08:45:28;;;;;;;5.97;3.43;;;;;;;;;;5051774;28;20380;-43
2022/10/23 08:47:56;;;;;;;4.40;3.43;;;;;;;;;;5051068;28;20407;-42
2022/10/23 08:50:28;;;;;;;3.80;3.00;;;;;;;;;;5051524;28;20434;-43
2022/10/23 08:53:00;;;;;;;5.87;3.10;;;;;;;;;;5051718;28;20390;-43
2022/10/23 08:55:38;;;;;;;3.33;2.70;;;;;;;;;;5051591;28;20400;-43
2022/10/23 08:58:06;;;;;;;6.97;2.33;;;;;;;;;;5050684;28;20389;-43
2022/10/23 09:00:32;;;;;;;6.50;1.87;;;;;;;;;;5051420;28;20417;-42
2022/10/23 09:03:00;;;;;;;4.00;2.17;;;;;;;;;;5051364;28;20510;-43
2022/10/23 09:05:44;;;;;;;2.60;1.73;;;;;;;;;;5051403;28;20816;-43
2022/10/23 09:08:25;;;;;;;5.57;2.00;;;;;;;;;;5050977;28;20397;-43
2022/10/23 09:11:17;;;;;;;4.77;2.07;;;;;;;;;;5051485;28;20401;-43
2022/10/23 09:14:01;;;;;;;1.83;1.67;;;;;;;;;;5050552;28;20452;-43
2022/10/23 09:16:27;;;;;;;3.10;1.87;;;;;;;;;;5051651;28;20408;-43
2022/10/23 09:18:53;;;;;;;1.70;1.60;;;;;;;;;;5053245;28;20455;-44
2022/10/23 09:21:20;;;;;;;3.50;1.80;;;;;;;;;;5055058;28;20443;-44
2022/10/23 09:23:46;;;;;;;1.53;1.27;;;;;;;;;;5055252;28;20397;-43
2022/10/23 09:26:14;;;;;;;4.97;2.30;;;;;;;;;;5055105;28;20953;-43
2022/10/23 09:28:48;;;;;;;3.37;1.63;;;;;;;;;;5054541;28;20420;-43
2022/10/23 09:31:14;;;;;;;3.33;1.60;;;;;;;;;;5055088;28;20389;-43
2022/10/23 09:33:40;;;;;;;3.87;1.70;;;;;;;;;;5055072;28;20405;-43
2022/10/23 09:36:07;;;;;;;7.03;2.47;;;;;;;;;;5054977;28;20417;-43
2022/10/23 09:38:33;;;;;;;4.60;1.30;;;;;;;;;;5054090;28;20405;-43
2022/10/23 09:41:11;;;;;;;1.93;1.83;;;;;;;;;;5054942;28;20402;-43
2022/10/23 09:43:37;;;;;;;1.57;1.47;;;;;;;;;;5054938;28;20408;-43
2022/10/23 09:46:05;;;;;;;1.97;1.60;;;;;;;;;;5054905;28;20459;-43
2022/10/23 09:48:31;;;;;;;3.70;1.60;;;;;;;;;;5054024;28;20504;-43
2022/10/23 09:51:01;;;;;;;2.40;2.20;;;;;;;;;;5054852;28;20401;-42
2022/10/23 09:53:31;;;;;;;4.20;2.10;;;;;;;;;;5054652;28;20401;-43
2022/10/23 09:55:59;;;;;;;1.67;1.57;;;;;;;;;;5054867;28;20471;-43
2022/10/23 09:58:39;;;;;;;4.87;1.70;;;;;;;;;;5053903;28;20408;-43
2022/10/23 10:01:05;;;;;;;10.67;2.43;;;;;;;;;;5054605;28;20483;-43
2022/10/23 10:03:32;;;;;;;1.90;1.70;;;;;;;;;;5054475;28;20479;-42
2022/10/23 10:06:17;;;;;;;2.10;1.30;;;;;;;;;;5054176;28;20472;-43
2022/10/23 10:08:48;;;;;;;2.80;1.40;;;;;;;;;;5053718;28;20504;-43
2022/10/23 10:11:17;;;;;;;3.67;1.43;;;;;;;;;;5051792;28;20412;-42
2022/10/23 10:13:49;;;;;;;1.73;1.63;;;;;;;;;;5054053;28;20823;-42
2022/10/23 10:16:29;;;;;;;1.67;1.57;;;;;;;;;;5054014;28;20493;-42
2022/10/23 10:19:01;;;;;;;1.50;1.40;;;;;;;;;;5053552;28;20781;-42
2022/10/23 10:21:41;;;;;;;4.10;1.70;;;;;;;;;;5053756;28;20408;-42
2022/10/23 10:24:10;;;;;;;4.00;1.63;;;;;;;;;;5053817;28;20496;-42
2022/10/23 10:26:56;;;;;;;2.40;1.50;;;;;;;;;;5053987;28;20491;-42
2022/10/23 10:29:34;;;;;;;1.70;1.60;;;;;;;;;;5052926;28;20421;-42
2022/10/23 10:32:11;;;;;;;3.97;1.80;;;;;;;;;;5053800;28;20400;-43
2022/10/23 10:34:41;;;;;;;6.60;1.87;;;;;;;;;;5053228;28;20411;-43
2022/10/23 10:37:21;;;;;;;2.53;1.47;;;;;;;;;;5052903;28;20419;-43
2022/10/23 10:39:50;;;;;;;4.30;1.73;;;;;;;;;;5053727;28;20505;-43
2022/10/23 10:42:24;;;;;;;3.43;1.67;;;;;;;;;;5053726;28;20414;-43
2022/10/23 10:44:50;;;;;;;2.20;1.67;;;;;;;;;;5053755;28;20455;-43
2022/10/23 10:47:34;;;;;;;1.93;1.73;;;;;;;;;;5053563;28;20456;-43
2022/10/23 10:50:18;;;;;;;3.03;1.90;;;;;;;;;;5053533;28;20436;-42
2022/10/23 10:53:08;;;;;;;3.43;2.27;;;;;;;;;;5053619;28;20914;-43
2022/10/23 10:55:43;;;;;;;3.30;1.77;;;;;;;;;;5053687;28;20401;-43
2022/10/23 10:58:15;;;;;;;3.70;2.13;;;;;;;;;;5052791;28;20410;-43
2022/10/23 11:00:42;;;;;;;6.90;1.70;;;;;;;;;;5053297;28;20397;-42
2022/10/23 11:03:22;;;;;;;2.37;1.50;;;;;;;;;;5053423;28;20471;-43
2022/10/23 11:05:49;;;;;;;2.90;1.73;;;;;;;;;;5053414;28;20459;-43
2022/10/23 11:08:15;;;;;;;3.37;1.60;;;;;;;;;;5052559;28;20408;-43
2022/10/23 11:10:43;;;;;;;2.83;1.80;;;;;;;;;;5053314;28;21039;-43
2022/10/23 11:13:26;;;;;;;2.20;1.30;;;;;;;;;;5053300;28;20423;-43
2022/10/23 11:15:54;;;;;;;1.93;1.60;;;;;;;;;;5052986;28;20404;-43
2022/10/23 11:18:25;;;;;;;2.30;1.80;;;;;;;;;;5052288;28;20405;-42
2022/10/23 11:21:00;;;;;;;3.43;2.00;;;;;;;;;;5051149;28;20420;-43
2022/10/23 11:23:25;;;;;;;3.70;1.93;;;;;;;;;;5052832;28;20902;-43
2022/10/23 11:25:58;;;;;;;3.90;2.00;;;;;;;;;;5052877;28;20495;-43
2022/10/23 11:28:26;;;;;;;3.43;1.60;;;;;;;;;;5052217;28;20810;-42
2022/10/23 11:30:55;;;;;;;4.57;2.10;;;;;;;;;;5052539;28;20509;-43
2022/10/23 11:33:27;;;;;;;7.40;2.37;;;;;;;;;;5052838;28;20519;-43
2022/10/23 11:36:00;;;;;;;8.97;1.80;;;;;;;;;;5051787;28;20888;-43
2022/10/23 11:38:26;;;;;;;5.57;2.10;;;;;;;;;;5044911;28;20975;-43
2022/10/23 11:40:54;;;;;;;3.20;1.90;;;;;;;;;;5041340;28;20408;-42
2022/10/23 11:43:46;;;;;;;2.30;1.93;;;;;;;;;;5035934;28;20413;-43
2022/10/23 11:46:33;;;;;;;1.87;1.67;;;;;;;;;;5032429;28;20466;-42
2022/10/23 11:49:01;;;;;;;3.67;1.97;;;;;;;;;;5041082;28;20437;-42
2022/10/23 11:51:35;;;;;;;2.83;2.47;;;;;;;;;;5052829;28;20781;-42
2022/10/23 11:54:27;;;;;;;1.93;1.50;;;;;;;;;;5052383;28;20405;-42
2022/10/23 11:57:05;;;;;;;2.10;1.70;;;;;;;;;;5051120;28;20905;-42
2022/10/23 11:59:32;;;;;;;3.10;1.53;;;;;;;;;;5051755;28;20414;-43
2022/10/23 12:02:00;;;;;;;2.20;1.77;;;;;;;;;;5052348;28;20433;-41
2022/10/23 12:04:29;;;;;;;2.60;1.87;;;;;;;;;;5051783;28;20449;-42
2022/10/23 12:06:58;;;;;;;1.87;1.57;;;;;;;;;;5051847;28;20503;-42
2022/10/23 12:09:43;;;;;;;2.43;1.37;;;;;;;;;;5051605;28;20503;-42
2022/10/23 12:12:08;;;;;;;3.47;1.50;;;;;;;;;;5050969;28;20931;-42
2022/10/23 12:14:42;;;;;;;4.20;1.83;;;;;;;;;;5051924;28;20402;-42
2022/10/23 12:17:24;;;;;;;7.10;1.80;;;;;;;;;;5051920;28;20414;-43
2022/10/23 12:19:51;;;;;;;2.53;1.40;;;;;;;;;;5052114;28;20457;-44
2022/10/23 12:22:18;;;;;;;3.33;1.70;;;;;;;;;;5052562;28;20911;-43
2022/10/23 12:25:07;;;;;;;2.60;1.73;;;;;;;;;;5052865;28;20412;-44
2022/10/23 12:27:43;;;;;;;1.60;1.50;;;;;;;;;;5051416;28;20468;-43
2022/10/23 12:30:14;;;;;;;6.00;1.60;;;;;;;;;;5053133;28;20940;-46
2022/10/23 12:32:51;;;;;;;3.23;1.70;;;;;;;;;;5052859;28;20817;-44
2022/10/23 12:35:17;;;;;;;2.33;1.77;;;;;;;;;;5052989;28;20397;-45
2022/10/23 12:38:15;;;;;;;7.77;2.50;;;;;;;;;;5052157;28;20408;-45
2022/10/23 12:40:51;;;;;;;7.10;2.00;;;;;;;;;;5040789;28;20429;-44
2022/10/23 12:43:26;;;;;;;6.70;1.97;;;;;;;;;;5053261;28;20523;-47
2022/10/23 12:45:53;;;;;;;5.57;1.53;;;;;;;;;;5052923;28;20681;-46
2022/10/23 12:48:20;;;;;;;2.90;1.90;;;;;;;;;;5051390;28;20406;-46
2022/10/23 12:50:54;;;;;;;7.03;2.20;;;;;;;;;;5050360;28;20413;-45
2022/10/23 12:53:21;;;;;;;4.77;2.30;;;;;;;;;;5053587;28;20454;-47
2022/10/23 12:55:58;;;;;;;3.80;1.73;;;;;;;;;;5056074;28;20924;-44
2022/10/23 12:58:29;;;;;;;2.93;2.23;;;;;;;;;;5055105;28;20401;-45
2022/10/23 13:00:59;;;;;;;5.03;1.80;;;;;;;;;;5055877;28;20465;-47
2022/10/23 13:03:26;;;;;;;14.50;2.13;;;;;;;;;;5055737;28;20421;-46
2022/10/23 13:05:53;;;;;;;2.73;1.83;;;;;;;;;;5053722;28;20504;-47
2022/10/23 13:08:20;;;;;;;4.23;2.10;;;;;;;;;;5055137;28;20542;-45
2022/10/23 13:10:46;;;;;;;6.93;2.53;;;;;;;;;;5055753;28;20400;-47
2022/10/23 13:13:13;;;;;;;9.50;4.30;;;;;;;;;;5055539;28;20464;-45
2022/10/23 13:15:40;;;;;;;4.23;2.00;;;;;;;;;;5055774;28;20406;-45
2022/10/23 13:18:07;;;;;;;8.80;2.93;;;;;;;;;;5054862;28;20412;-47
2022/10/23 13:20:56;;;;;;;5.67;2.10;;;;;;;;;;5055427;28;20429;-46
2022/10/23 13:23:22;;;;;;;10.47;7.70;;;;;;;;;;5052450;28;20478;-46
2022/10/23 13:25:55;;;;;;;5.83;2.80;;;;;;;;;;5055460;28;20877;-45
2022/10/23 13:28:22;;;;;;;3.30;2.10;;;;;;;;;;5054549;28;20397;-47
2022/10/23 13:31:02;;;;;;;2.37;2.07;;;;;;;;;;5055202;28;20401;-45
2022/10/23 13:33:36;;;;;;;8.37;3.67;;;;;;;;;;5055589;28;20455;-46
2022/10/23 13:36:18;;;;;;;10.73;2.10;;;;;;;;;;5055287;28;20412;-46
2022/10/23 13:38:46;;;;;;;4.50;2.00;;;;;;;;;;5054269;28;20459;-46
2022/10/23 13:41:13;;;;;;;5.70;2.03;;;;;;;;;;5055011;28;20981;-46
2022/10/23 13:43:40;;;;;;;4.20;1.80;;;;;;;;;;5055119;28;20893;-46
2022/10/23 13:46:11;;;;;;;6.73;2.00;;;;;;;;;;5054882;28;20533;-45
2022/10/23 13:48:37;;;;;;;5.40;2.20;;;;;;;;;;5054545;28;20424;-46
2022/10/23 13:51:11;;;;;;;3.73;2.10;;;;;;;;;;5053634;28;20409;-46
2022/10/23 13:53:37;;;;;;;9.93;2.27;;;;;;;;;;5054834;28;20397;-46
2022/10/23 13:56:03;;;;;;;8.83;3.90;;;;;;;;;;5054893;28;20416;-46
2022/10/23 13:58:29;;;;;;;4.27;2.20;;;;;;;;;;5053920;28;20449;-46
2022/10/23 14:00:55;;;;;;;3.00;1.90;;;;;;;;;;5054773;28;20430;-46
2022/10/23 14:03:23;;;;;;;3.90;2.10;;;;;;;;;;5054391;28;20435;-46
2022/10/23 14:05:49;;;;;;;4.40;2.30;;;;;;;;;;5050904;28;20456;-46
2022/10/23 14:08:15;;;;;;;2.90;2.27;;;;;;;;;;5054028;28;20484;-45
2022/10/23 14:10:41;;;;;;;8.60;2.13;;;;;;;;;;5054519;28;20920;-44
2022/10/23 14:13:07;;;;;;;5.90;1.87;;;;;;;;;;5054823;28;20394;-44
2022/10/23 14:15:33;;;;;;;5.10;2.30;;;;;;;;;;5054319;28;20400;-47
2022/10/23 14:17:59;;;;;;;3.40;1.90;;;;;;;;;;5053199;28;20417;-46
2022/10/23 14:20:25;;;;;;;6.70;2.27;;;;;;;;;;5054238;28;20426;-46
2022/10/23 14:22:51;;;;;;;5.60;1.83;;;;;;;;;;5054441;28;20415;-46
2022/10/23 14:25:17;;;;;;;2.87;2.13;;;;;;;;;;5053962;28;20895;-47
2022/10/23 14:27:44;;;;;;;5.27;2.03;;;;;;;;;;5053607;28;20461;-47
2022/10/23 14:30:10;;;;;;;9.80;2.07;;;;;;;;;;5055074;28;20950;-48
2022/10/23 14:32:36;;;;;;;6.90;2.60;;;;;;;;;;5055116;28;20405;-47
2022/10/23 14:35:02;;;;;;;3.83;2.23;;;;;;;;;;5054357;28;20403;-47
2022/10/23 14:37:32;;;;;;;5.93;2.60;;;;;;;;;;5053611;28;20411;-46
2022/10/23 14:39:58;;;;;;;3.20;1.97;;;;;;;;;;5052785;28;20482;-45
2022/10/23 14:42:24;;;;;;;7.43;2.10;;;;;;;;;;5052834;28;20962;-44
2022/10/23 14:44:50;;;;;;;2.90;2.10;;;;;;;;;;5053370;28;20815;-46
2022/10/23 14:47:18;;;;;;;5.13;2.07;;;;;;;;;;5053510;28;20486;-44
2022/10/23 14:49:45;;;;;;;4.63;2.60;;;;;;;;;;5052392;28;20510;-47